sensor_id;sensor_type;location;lat;lon;timestamp;pressure;altitude;pressure_sealevel;temperature
78961;BMP280;68362;45.970;12.646;2023-05-10T00:01:01;101091.28;;;15.63
78961;BMP280;68362;45.970;12.646;2023-05-10T00:02:03;101091.28;;;15.63
78961;BMP280;68362;45.970;12.646;2023-05-10T00:03:05;101089.13;;;15.43
78961;BMP280;68362;45.970;12.646;2023-05-10T00:04:07;101083.44;;;15.52
78961;BMP280;68362;45.970;12.646;2023-05-10T00:05:09;101092.75;;;15.37
78961;BMP280;68362;45.970;12.646;2023-05-10T00:06:11;101091.94;;;15.37
78961;BMP280;68362;45.970;12.646;2023-05-10T00:07:13;101085.78;;;15.31
78961;BMP280;68362;45.970;12.646;2023-05-10T00:08:15;101086.16;;;15.23
78961;BMP280;68362;45.970;12.646;2023-05-10T00:09:18;101083.91;;;15.32
78961;BMP280;68362;45.970;12.646;2023-05-10T00:10:20;101073.34;;;15.32
78961;BMP280;68362;45.970;12.646;2023-05-10T00:11:22;101081.63;;;15.02
78961;BMP280;68362;45.970;12.646;2023-05-10T00:12:24;101075.59;;;15.23
78961;BMP280;68362;45.970;12.646;2023-05-10T00:13:26;101078.97;;;15.18
78961;BMP280;68362;45.970;12.646;2023-05-10T00:14:28;101074.31;;;15.26
78961;BMP280;68362;45.970;12.646;2023-05-10T00:15:30;101071.59;;;15.20
78961;BMP280;68362;45.970;12.646;2023-05-10T00:16:32;101066.41;;;15.26
78961;BMP280;68362;45.970;12.646;2023-05-10T00:17:35;101066.13;;;15.27
78961;BMP280;68362;45.970;12.646;2023-05-10T00:18:37;101061.66;;;15.28
78961;BMP280;68362;45.970;12.646;2023-05-10T00:19:39;101060.69;;;15.34
78961;BMP280;68362;45.970;12.646;2023-05-10T00:20:41;101068.41;;;15.18
78961;BMP280;68362;45.970;12.646;2023-05-10T00:21:43;101057.16;;;15.28
78961;BMP280;68362;45.970;12.646;2023-05-10T00:22:45;101065.50;;;15.20
78961;BMP280;68362;45.970;12.646;2023-05-10T00:23:47;101051.25;;;15.21
78961;BMP280;68362;45.970;12.646;2023-05-10T00:24:49;101058.44;;;15.09
78961;BMP280;68362;45.970;12.646;2023-05-10T00:25:51;101057.19;;;15.11
78961;BMP280;68362;45.970;12.646;2023-05-10T00:26:53;101046.41;;;15.18
78961;BMP280;68362;45.970;12.646;2023-05-10T00:27:55;101051.06;;;14.94
78961;BMP280;68362;45.970;12.646;2023-05-10T00:28:58;101051.47;;;15.19
78961;BMP280;68362;45.970;12.646;2023-05-10T00:30:01;101047.56;;;15.05
78961;BMP280;68362;45.970;12.646;2023-05-10T00:31:03;101047.41;;;14.95
78961;BMP280;68362;45.970;12.646;2023-05-10T00:32:05;101047.97;;;14.68
78961;BMP280;68362;45.970;12.646;2023-05-10T00:33:07;101050.09;;;15.00
78961;BMP280;68362;45.970;12.646;2023-05-10T00:34:10;101044.81;;;14.83
78961;BMP280;68362;45.970;12.646;2023-05-10T00:35:12;101043.94;;;14.78
78961;BMP280;68362;45.970;12.646;2023-05-10T00:36:14;101035.09;;;14.89
78961;BMP280;68362;45.970;12.646;2023-05-10T00:37:16;101037.25;;;14.58
78961;BMP280;68362;45.970;12.646;2023-05-10T00:38:18;101030.47;;;14.51
78961;BMP280;68362;45.970;12.646;2023-05-10T00:39:21;101025.34;;;14.89
78961;BMP280;68362;45.970;12.646;2023-05-10T00:40:23;101027.19;;;14.72
78961;BMP280;68362;45.970;12.646;2023-05-10T00:41:25;101024.47;;;14.84
78961;BMP280;68362;45.970;12.646;2023-05-10T00:42:27;101020.63;;;14.91
78961;BMP280;68362;45.970;12.646;2023-05-10T00:43:29;101024.06;;;14.75
78961;BMP280;68362;45.970;12.646;2023-05-10T00:44:31;101028.94;;;14.66
78961;BMP280;68362;45.970;12.646;2023-05-10T00:45:35;101020.78;;;14.85
78961;BMP280;68362;45.970;12.646;2023-05-10T00:46:38;101019.34;;;14.94
78961;BMP280;68362;45.970;12.646;2023-05-10T00:47:40;101022.50;;;14.62
78961;BMP280;68362;45.970;12.646;2023-05-10T00:48:43;101021.19;;;14.77
78961;BMP280;68362;45.970;12.646;2023-05-10T00:49:45;101017.69;;;14.59
78961;BMP280;68362;45.970;12.646;2023-05-10T00:50:48;101012.78;;;14.63
78961;BMP280;68362;45.970;12.646;2023-05-10T00:51:50;101016.84;;;14.71
78961;BMP280;68362;45.970;12.646;2023-05-10T00:52:52;101013.91;;;14.84
78961;BMP280;68362;45.970;12.646;2023-05-10T00:53:54;101011.34;;;14.72
78961;BMP280;68362;45.970;12.646;2023-05-10T00:54:58;101014.59;;;14.62
78961;BMP280;68362;45.970;12.646;2023-05-10T00:56:00;101011.06;;;14.74
78961;BMP280;68362;45.970;12.646;2023-05-10T00:57:02;101006.84;;;14.44
78961;BMP280;68362;45.970;12.646;2023-05-10T00:58:05;101009.13;;;14.52
78961;BMP280;68362;45.970;12.646;2023-05-10T00:59:10;101002.22;;;14.63
78961;BMP280;68362;45.970;12.646;2023-05-10T01:00:13;101005.50;;;14.42
78961;BMP280;68362;45.970;12.646;2023-05-10T01:01:19;101003.25;;;14.33
78961;BMP280;68362;45.970;12.646;2023-05-10T01:02:22;100998.81;;;14.22
78961;BMP280;68362;45.970;12.646;2023-05-10T01:03:25;101002.06;;;14.41
78961;BMP280;68362;45.970;12.646;2023-05-10T01:04:27;100996.00;;;14.29
78961;BMP280;68362;45.970;12.646;2023-05-10T01:05:30;100997.22;;;14.09
78961;BMP280;68362;45.970;12.646;2023-05-10T01:06:31;100995.28;;;14.17
78961;BMP280;68362;45.970;12.646;2023-05-10T01:07:33;100995.28;;;14.17
78961;BMP280;68362;45.970;12.646;2023-05-10T01:08:36;100988.03;;;14.24
78961;BMP280;68362;45.970;12.646;2023-05-10T01:09:38;100991.94;;;14.09
78961;BMP280;68362;45.970;12.646;2023-05-10T01:10:41;100993.84;;;13.97
78961;BMP280;68362;45.970;12.646;2023-05-10T01:11:44;100989.69;;;14.30
78961;BMP280;68362;45.970;12.646;2023-05-10T01:12:46;100990.66;;;14.24
78961;BMP280;68362;45.970;12.646;2023-05-10T01:13:55;100989.00;;;14.34
78961;BMP280;68362;45.970;12.646;2023-05-10T01:14:58;100990.84;;;14.51
78961;BMP280;68362;45.970;12.646;2023-05-10T01:16:01;100991.94;;;14.66
78961;BMP280;68362;45.970;12.646;2023-05-10T01:17:05;100980.41;;;14.27
78961;BMP280;68362;45.970;12.646;2023-05-10T01:18:08;100983.19;;;14.21
78961;BMP280;68362;45.970;12.646;2023-05-10T01:19:24;100985.44;;;14.29
78961;BMP280;68362;45.970;12.646;2023-05-10T01:20:32;100986.22;;;14.13
78961;BMP280;68362;45.970;12.646;2023-05-10T01:23:13;100989.78;;;14.06
78961;BMP280;68362;45.970;12.646;2023-05-10T01:24:51;100983.97;;;14.33
78961;BMP280;68362;45.970;12.646;2023-05-10T01:26:13;100987.69;;;14.20
78961;BMP280;68362;45.970;12.646;2023-05-10T01:27:31;100979.22;;;14.35
78961;BMP280;68362;45.970;12.646;2023-05-10T01:33:59;100974.88;;;14.29
78961;BMP280;68362;45.970;12.646;2023-05-10T01:35:12;100975.75;;;14.46
78961;BMP280;68362;45.970;12.646;2023-05-10T01:36:23;100973.63;;;14.31
78961;BMP280;68362;45.970;12.646;2023-05-10T01:39:36;100982.94;;;14.51
78961;BMP280;68362;45.970;12.646;2023-05-10T01:41:55;100976.88;;;14.22
78961;BMP280;68362;45.970;12.646;2023-05-10T01:43:03;100974.13;;;14.28
78961;BMP280;68362;45.970;12.646;2023-05-10T01:44:18;100975.84;;;14.51
78961;BMP280;68362;45.970;12.646;2023-05-10T01:45:32;100975.06;;;14.39
78961;BMP280;68362;45.970;12.646;2023-05-10T01:46:37;100978.72;;;14.21
78961;BMP280;68362;45.970;12.646;2023-05-10T01:47:43;100982.38;;;14.49
78961;BMP280;68362;45.970;12.646;2023-05-10T01:48:52;100977.84;;;14.61
78961;BMP280;68362;45.970;12.646;2023-05-10T01:49:56;100974.94;;;14.46
78961;BMP280;68362;45.970;12.646;2023-05-10T01:51:00;100974.66;;;14.76
78961;BMP280;68362;45.970;12.646;2023-05-10T01:52:12;100972.72;;;14.71
78961;BMP280;68362;45.970;12.646;2023-05-10T01:53:18;100979.75;;;14.65
78961;BMP280;68362;45.970;12.646;2023-05-10T01:54:22;100971.06;;;14.82
78961;BMP280;68362;45.970;12.646;2023-05-10T01:55:28;100973.28;;;14.90
78961;BMP280;68362;45.970;12.646;2023-05-10T01:56:33;100975.28;;;15.00
78961;BMP280;68362;45.970;12.646;2023-05-10T01:57:37;100971.44;;;15.07
78961;BMP280;68362;45.970;12.646;2023-05-10T01:58:43;100974.53;;;15.21
78961;BMP280;68362;45.970;12.646;2023-05-10T01:59:49;100978.63;;;15.29
78961;BMP280;68362;45.970;12.646;2023-05-10T02:00:52;100968.13;;;15.34
78961;BMP280;68362;45.970;12.646;2023-05-10T02:01:57;100977.53;;;15.25
78961;BMP280;68362;45.970;12.646;2023-05-10T02:03:06;100973.75;;;15.04
78961;BMP280;68362;45.970;12.646;2023-05-10T02:04:10;100972.81;;;14.93
78961;BMP280;68362;45.970;12.646;2023-05-10T02:05:15;100972.06;;;14.98
78961;BMP280;68362;45.970;12.646;2023-05-10T02:06:19;100978.41;;;14.80
78961;BMP280;68362;45.970;12.646;2023-05-10T02:07:23;100977.75;;;15.06
78961;BMP280;68362;45.970;12.646;2023-05-10T02:08:26;100966.78;;;15.14
78961;BMP280;68362;45.970;12.646;2023-05-10T02:09:29;100970.59;;;15.23
78961;BMP280;68362;45.970;12.646;2023-05-10T02:10:35;100973.31;;;15.29
78961;BMP280;68362;45.970;12.646;2023-05-10T02:11:39;100974.13;;;15.29
78961;BMP280;68362;45.970;12.646;2023-05-10T02:12:43;100975.97;;;15.29
78961;BMP280;68362;45.970;12.646;2023-05-10T02:13:47;100973.91;;;15.31
78961;BMP280;68362;45.970;12.646;2023-05-10T02:14:51;100970.75;;;15.34
78961;BMP280;68362;45.970;12.646;2023-05-10T02:15:54;100971.84;;;14.99
78961;BMP280;68362;45.970;12.646;2023-05-10T02:16:59;100965.00;;;15.03
78961;BMP280;68362;45.970;12.646;2023-05-10T02:18:02;100970.16;;;14.93
78961;BMP280;68362;45.970;12.646;2023-05-10T02:19:07;100964.63;;;15.11
78961;BMP280;68362;45.970;12.646;2023-05-10T02:20:11;100964.44;;;15.18
78961;BMP280;68362;45.970;12.646;2023-05-10T02:21:15;100962.88;;;15.00
78961;BMP280;68362;45.970;12.646;2023-05-10T02:22:17;100962.38;;;15.20
78961;BMP280;68362;45.970;12.646;2023-05-10T02:23:21;100967.06;;;15.18
78961;BMP280;68362;45.970;12.646;2023-05-10T02:24:24;100967.53;;;15.10
78961;BMP280;68362;45.970;12.646;2023-05-10T02:25:27;100961.06;;;15.22
78961;BMP280;68362;45.970;12.646;2023-05-10T02:26:31;100961.06;;;15.22
78961;BMP280;68362;45.970;12.646;2023-05-10T02:27:36;100953.13;;;15.22
78961;BMP280;68362;45.970;12.646;2023-05-10T02:28:40;100960.69;;;15.31
78961;BMP280;68362;45.970;12.646;2023-05-10T02:29:42;100955.91;;;15.33
78961;BMP280;68362;45.970;12.646;2023-05-10T02:30:47;100958.16;;;15.02
78961;BMP280;68362;45.970;12.646;2023-05-10T02:31:52;100953.63;;;15.19
78961;BMP280;68362;45.970;12.646;2023-05-10T02:32:55;100953.16;;;15.06
78961;BMP280;68362;45.970;12.646;2023-05-10T02:33:58;100951.41;;;15.11
78961;BMP280;68362;45.970;12.646;2023-05-10T02:35:05;100954.44;;;15.20
78961;BMP280;68362;45.970;12.646;2023-05-10T02:36:08;100947.84;;;15.22
78961;BMP280;68362;45.970;12.646;2023-05-10T02:37:15;100951.22;;;15.18
78961;BMP280;68362;45.970;12.646;2023-05-10T02:38:20;100938.38;;;15.27
78961;BMP280;68362;45.970;12.646;2023-05-10T02:39:24;100941.59;;;15.29
78961;BMP280;68362;45.970;12.646;2023-05-10T02:40:27;100936.81;;;15.26
78961;BMP280;68362;45.970;12.646;2023-05-10T02:41:31;100936.19;;;15.18
78961;BMP280;68362;45.970;12.646;2023-05-10T02:42:37;100939.47;;;15.09
78961;BMP280;68362;45.970;12.646;2023-05-10T02:43:40;100944.94;;;15.02
78961;BMP280;68362;45.970;12.646;2023-05-10T02:44:45;100942.22;;;14.97
78961;BMP280;68362;45.970;12.646;2023-05-10T02:45:49;100940.38;;;14.81
78961;BMP280;68362;45.970;12.646;2023-05-10T02:46:51;100939.56;;;14.97
78961;BMP280;68362;45.970;12.646;2023-05-10T02:47:54;100936.22;;;15.02
78961;BMP280;68362;45.970;12.646;2023-05-10T02:48:56;100935.78;;;15.10
78961;BMP280;68362;45.970;12.646;2023-05-10T02:49:58;100936.59;;;15.10
78961;BMP280;68362;45.970;12.646;2023-05-10T02:51:04;100938.66;;;15.08
78961;BMP280;68362;45.970;12.646;2023-05-10T02:52:08;100932.03;;;15.06
78961;BMP280;68362;45.970;12.646;2023-05-10T02:53:15;100939.47;;;15.09
78961;BMP280;68362;45.970;12.646;2023-05-10T02:54:25;100939.44;;;14.87
78961;BMP280;68362;45.970;12.646;2023-05-10T02:55:33;100935.38;;;14.51
78961;BMP280;68362;45.970;12.646;2023-05-10T02:56:44;100935.38;;;14.51
78961;BMP280;68362;45.970;12.646;2023-05-10T02:57:52;100937.81;;;14.52
78961;BMP280;68362;45.970;12.646;2023-05-10T02:58:56;100938.38;;;14.71
78961;BMP280;68362;45.970;12.646;2023-05-10T02:59:58;100940.91;;;14.49
78961;BMP280;68362;45.970;12.646;2023-05-10T03:01:01;100936.69;;;14.65
78961;BMP280;68362;45.970;12.646;2023-05-10T03:02:04;100936.72;;;14.48
78961;BMP280;68362;45.970;12.646;2023-05-10T03:03:06;100930.84;;;14.46
78961;BMP280;68362;45.970;12.646;2023-05-10T03:04:09;100939.91;;;14.22
78961;BMP280;68362;45.970;12.646;2023-05-10T03:05:11;100936.81;;;14.25
78961;BMP280;68362;45.970;12.646;2023-05-10T03:06:13;100934.25;;;14.30
78961;BMP280;68362;45.970;12.646;2023-05-10T03:07:16;100937.81;;;14.52
78961;BMP280;68362;45.970;12.646;2023-05-10T03:08:21;100928.28;;;14.51
78961;BMP280;68362;45.970;12.646;2023-05-10T03:09:23;100932.84;;;14.56
78961;BMP280;68362;45.970;12.646;2023-05-10T03:10:27;100933.69;;;14.45
78961;BMP280;68362;45.970;12.646;2023-05-10T03:13:02;100927.25;;;14.52
78961;BMP280;68362;45.970;12.646;2023-05-10T03:14:26;100929.16;;;14.74
78961;BMP280;68362;45.970;12.646;2023-05-10T03:16:55;100924.22;;;14.60
78961;BMP280;68362;45.970;12.646;2023-05-10T03:18:02;100923.75;;;14.63
78961;BMP280;68362;45.970;12.646;2023-05-10T03:19:12;100924.69;;;14.57
78961;BMP280;68362;45.970;12.646;2023-05-10T03:20:24;100923.75;;;14.63
78961;BMP280;68362;45.970;12.646;2023-05-10T03:21:29;100921.31;;;14.79
78961;BMP280;68362;45.970;12.646;2023-05-10T03:22:37;100925.03;;;14.78
78961;BMP280;68362;45.970;12.646;2023-05-10T03:23:43;100922.13;;;14.46
78961;BMP280;68362;45.970;12.646;2023-05-10T03:24:47;100922.72;;;14.19
78961;BMP280;68362;45.970;12.646;2023-05-10T03:25:50;100918.28;;;14.53
78961;BMP280;68362;45.970;12.646;2023-05-10T03:26:55;100918.13;;;14.43
78961;BMP280;68362;45.970;12.646;2023-05-10T03:28:00;100920.50;;;14.28
78961;BMP280;68362;45.970;12.646;2023-05-10T03:29:04;100916.69;;;14.52
78961;BMP280;68362;45.970;12.646;2023-05-10T03:30:10;100918.28;;;14.53
78961;BMP280;68362;45.970;12.646;2023-05-10T03:31:12;100916.59;;;14.47
78961;BMP280;68362;45.970;12.646;2023-05-10T03:32:14;100921.88;;;14.64
78961;BMP280;68362;45.970;12.646;2023-05-10T03:33:16;100917.84;;;14.45
78961;BMP280;68362;45.970;12.646;2023-05-10T03:34:23;100919.47;;;14.62
78961;BMP280;68362;45.970;12.646;2023-05-10T03:35:25;100918.56;;;14.74
78961;BMP280;68362;45.970;12.646;2023-05-10T03:36:27;100911.22;;;14.76
78961;BMP280;68362;45.970;12.646;2023-05-10T03:37:30;100920.34;;;14.85
78961;BMP280;68362;45.970;12.646;2023-05-10T03:38:32;100913.41;;;14.62
78961;BMP280;68362;45.970;12.646;2023-05-10T03:39:33;100911.88;;;14.83
78961;BMP280;68362;45.970;12.646;2023-05-10T03:40:35;100921.44;;;14.89
78961;BMP280;68362;45.970;12.646;2023-05-10T03:41:38;100911.16;;;14.87
78961;BMP280;68362;45.970;12.646;2023-05-10T03:42:40;100915.69;;;14.92
78961;BMP280;68362;45.970;12.646;2023-05-10T03:43:42;100908.72;;;14.86
78961;BMP280;68362;45.970;12.646;2023-05-10T03:44:44;100912.66;;;14.83
78961;BMP280;68362;45.970;12.646;2023-05-10T03:45:46;100912.91;;;14.82
78961;BMP280;68362;45.970;12.646;2023-05-10T03:46:48;100917.00;;;14.73
78961;BMP280;68362;45.970;12.646;2023-05-10T03:47:50;100914.25;;;14.84
78961;BMP280;68362;45.970;12.646;2023-05-10T03:48:52;100916.50;;;14.76
78961;BMP280;68362;45.970;12.646;2023-05-10T03:49:55;100917.41;;;14.81
78961;BMP280;68362;45.970;12.646;2023-05-10T03:50:57;100917.16;;;14.83
78961;BMP280;68362;45.970;12.646;2023-05-10T03:51:59;100910.88;;;14.89
78961;BMP280;68362;45.970;12.646;2023-05-10T03:53:01;100910.56;;;14.85
78961;BMP280;68362;45.970;12.646;2023-05-10T03:54:04;100914.00;;;14.86
78961;BMP280;68362;45.970;12.646;2023-05-10T03:55:06;100916.53;;;14.92
78961;BMP280;68362;45.970;12.646;2023-05-10T03:56:08;100920.53;;;14.61
78961;BMP280;68362;45.970;12.646;2023-05-10T03:57:10;100915.47;;;14.77
78961;BMP280;68362;45.970;12.646;2023-05-10T03:58:12;100917.16;;;14.83
78961;BMP280;68362;45.970;12.646;2023-05-10T03:59:14;100916.69;;;14.69
78961;BMP280;68362;45.970;12.646;2023-05-10T04:00:16;100914.09;;;14.41
78961;BMP280;68362;45.970;12.646;2023-05-10T04:01:19;100915.53;;;14.31
78961;BMP280;68362;45.970;12.646;2023-05-10T04:02:21;100921.88;;;14.47
78961;BMP280;68362;45.970;12.646;2023-05-10T04:03:23;100915.72;;;14.58
78961;BMP280;68362;45.970;12.646;2023-05-10T04:04:30;100918.50;;;14.68
78961;BMP280;68362;45.970;12.646;2023-05-10T04:05:32;100917.97;;;14.66
78961;BMP280;68362;45.970;12.646;2023-05-10T04:06:34;100919.97;;;14.76
78961;BMP280;68362;45.970;12.646;2023-05-10T04:07:36;100920.19;;;14.75
78961;BMP280;68362;45.970;12.646;2023-05-10T04:08:38;100919.66;;;14.73
78961;BMP280;68362;45.970;12.646;2023-05-10T04:09:40;100917.47;;;14.53
78961;BMP280;68362;45.970;12.646;2023-05-10T04:10:43;100917.28;;;14.59
78961;BMP280;68362;45.970;12.646;2023-05-10T04:11:45;100913.00;;;14.70
78961;BMP280;68362;45.970;12.646;2023-05-10T04:12:47;100911.31;;;14.81
78961;BMP280;68362;45.970;12.646;2023-05-10T04:13:49;100912.19;;;14.70
78961;BMP280;68362;45.970;12.646;2023-05-10T04:14:51;100915.63;;;14.70
78961;BMP280;68362;45.970;12.646;2023-05-10T04:15:53;100912.59;;;14.78
78961;BMP280;68362;45.970;12.646;2023-05-10T04:16:55;100914.50;;;14.83
78961;BMP280;68362;45.970;12.646;2023-05-10T04:17:57;100917.63;;;14.80
78961;BMP280;68362;45.970;12.646;2023-05-10T04:18:59;100918.28;;;14.87
78961;BMP280;68362;45.970;12.646;2023-05-10T04:20:02;100923.25;;;14.66
78961;BMP280;68362;45.970;12.646;2023-05-10T04:21:13;100923.06;;;14.56
78961;BMP280;68362;45.970;12.646;2023-05-10T04:22:16;100919.78;;;14.49
78961;BMP280;68362;45.970;12.646;2023-05-10T04:23:18;100918.84;;;14.55
78961;BMP280;68362;45.970;12.646;2023-05-10T04:24:20;100923.78;;;14.68
78961;BMP280;68362;45.970;12.646;2023-05-10T04:25:22;100917.56;;;14.75
78961;BMP280;68362;45.970;12.646;2023-05-10T04:26:24;100916.81;;;14.79
78961;BMP280;68362;45.970;12.646;2023-05-10T04:27:27;100917.16;;;14.66
78961;BMP280;68362;45.970;12.646;2023-05-10T04:28:29;100920.81;;;14.65
78961;BMP280;68362;45.970;12.646;2023-05-10T04:29:31;100920.22;;;14.58
78961;BMP280;68362;45.970;12.646;2023-05-10T04:30:33;100915.09;;;14.51
78961;BMP280;68362;45.970;12.646;2023-05-10T04:31:36;100920.81;;;14.65
78961;BMP280;68362;45.970;12.646;2023-05-10T04:32:38;100918.78;;;14.67
78961;BMP280;68362;45.970;12.646;2023-05-10T04:33:40;100915.09;;;14.68
78961;BMP280;68362;45.970;12.646;2023-05-10T04:34:42;100910.66;;;14.74
78961;BMP280;68362;45.970;12.646;2023-05-10T04:35:44;100917.41;;;14.81
78961;BMP280;68362;45.970;12.646;2023-05-10T04:36:46;100917.16;;;14.83
78961;BMP280;68362;45.970;12.646;2023-05-10T04:37:48;100925.91;;;14.66
78961;BMP280;68362;45.970;12.646;2023-05-10T04:38:50;100920.88;;;14.20
78961;BMP280;68362;45.970;12.646;2023-05-10T04:39:52;100921.84;;;14.30
78961;BMP280;68362;45.970;12.646;2023-05-10T04:41:03;100916.19;;;14.55
78961;BMP280;68362;45.970;12.646;2023-05-10T04:42:05;100922.44;;;14.49
78961;BMP280;68362;45.970;12.646;2023-05-10T04:43:07;100915.66;;;14.08
78961;BMP280;68362;45.970;12.646;2023-05-10T04:44:09;100924.47;;;14.30
78961;BMP280;68362;45.970;12.646;2023-05-10T04:45:12;100923.16;;;14.28
78961;BMP280;68362;45.970;12.646;2023-05-10T04:46:14;100921.88;;;14.47
78961;BMP280;68362;45.970;12.646;2023-05-10T04:47:15;100924.16;;;14.27
78961;BMP280;68362;45.970;12.646;2023-05-10T04:48:18;100925.50;;;14.13
78961;BMP280;68362;45.970;12.646;2023-05-10T04:49:20;100921.94;;;14.35
78961;BMP280;68362;45.970;12.646;2023-05-10T04:50:22;100921.78;;;14.42
78961;BMP280;68362;45.970;12.646;2023-05-10T04:51:24;100926.81;;;14.27
78961;BMP280;68362;45.970;12.646;2023-05-10T04:52:26;100924.34;;;14.37
78961;BMP280;68362;45.970;12.646;2023-05-10T04:53:28;100931.72;;;14.06
78961;BMP280;68362;45.970;12.646;2023-05-10T04:54:30;100927.16;;;14.02
78961;BMP280;68362;45.970;12.646;2023-05-10T04:55:33;100927.94;;;14.31
78961;BMP280;68362;45.970;12.646;2023-05-10T04:56:35;100923.56;;;14.36
78961;BMP280;68362;45.970;12.646;2023-05-10T04:57:37;100928.50;;;14.33
78961;BMP280;68362;45.970;12.646;2023-05-10T04:58:39;100929.53;;;14.32
78961;BMP280;68362;45.970;12.646;2023-05-10T04:59:41;100925.78;;;14.28
78961;BMP280;68362;45.970;12.646;2023-05-10T05:00:44;100931.13;;;14.33
78961;BMP280;68362;45.970;12.646;2023-05-10T05:01:46;100924.94;;;14.10
78961;BMP280;68362;45.970;12.646;2023-05-10T05:02:48;100931.84;;;13.60
78961;BMP280;68362;45.970;12.646;2023-05-10T05:03:51;100932.44;;;13.62
78961;BMP280;68362;45.970;12.646;2023-05-10T05:04:55;100930.25;;;13.59
78961;BMP280;68362;45.970;12.646;2023-05-10T05:05:59;100930.81;;;14.01
78961;BMP280;68362;45.970;12.646;2023-05-10T05:07:01;100927.75;;;14.21
78961;BMP280;68362;45.970;12.646;2023-05-10T05:08:03;100933.28;;;14.36
78961;BMP280;68362;45.970;12.646;2023-05-10T05:09:05;100934.72;;;14.27
78961;BMP280;68362;45.970;12.646;2023-05-10T05:10:08;100936.66;;;14.31
78961;BMP280;68362;45.970;12.646;2023-05-10T05:11:10;100928.34;;;14.56
78961;BMP280;68362;45.970;12.646;2023-05-10T05:12:12;100931.84;;;14.45
78961;BMP280;68362;45.970;12.646;2023-05-10T05:13:16;100931.44;;;14.48
78961;BMP280;68362;45.970;12.646;2023-05-10T05:14:18;100929.97;;;14.57
78961;BMP280;68362;45.970;12.646;2023-05-10T05:15:22;100931.34;;;14.43
78961;BMP280;68362;45.970;12.646;2023-05-10T05:16:24;100930.00;;;14.00
78961;BMP280;68362;45.970;12.646;2023-05-10T05:17:27;100934.25;;;14.30
78961;BMP280;68362;45.970;12.646;2023-05-10T05:18:29;100937.31;;;14.55
78961;BMP280;68362;45.970;12.646;2023-05-10T05:19:31;100932.53;;;14.52
78961;BMP280;68362;45.970;12.646;2023-05-10T05:20:33;100927.88;;;14.59
78961;BMP280;68362;45.970;12.646;2023-05-10T05:21:38;100924.50;;;14.47
78961;BMP280;68362;45.970;12.646;2023-05-10T05:22:40;100936.03;;;14.41
78961;BMP280;68362;45.970;12.646;2023-05-10T05:23:43;100928.50;;;14.33
78961;BMP280;68362;45.970;12.646;2023-05-10T05:24:45;100932.34;;;14.42
78961;BMP280;68362;45.970;12.646;2023-05-10T05:25:47;100940.50;;;14.41
78961;BMP280;68362;45.970;12.646;2023-05-10T05:26:49;100926.91;;;14.49
78961;BMP280;68362;45.970;12.646;2023-05-10T05:27:51;100934.34;;;14.35
78961;BMP280;68362;45.970;12.646;2023-05-10T05:28:53;100931.34;;;14.43
78961;BMP280;68362;45.970;12.646;2023-05-10T05:29:57;100933.28;;;14.36
78961;BMP280;68362;45.970;12.646;2023-05-10T05:30:59;100922.72;;;14.36
78961;BMP280;68362;45.970;12.646;2023-05-10T05:32:01;100929.00;;;14.47
78961;BMP280;68362;45.970;12.646;2023-05-10T05:33:03;100930.59;;;14.48
78961;BMP280;68362;45.970;12.646;2023-05-10T05:34:06;100929.41;;;14.38
78961;BMP280;68362;45.970;12.646;2023-05-10T05:35:08;100929.09;;;14.52
78961;BMP280;68362;45.970;12.646;2023-05-10T05:36:10;100928.13;;;14.58
78961;BMP280;68362;45.970;12.646;2023-05-10T05:37:16;100930.94;;;14.68
78961;BMP280;68362;45.970;12.646;2023-05-10T05:38:19;100934.94;;;14.71
78961;BMP280;68362;45.970;12.646;2023-05-10T05:39:21;100928.28;;;14.85
78961;BMP280;68362;45.970;12.646;2023-05-10T05:40:23;100934.44;;;14.90
78961;BMP280;68362;45.970;12.646;2023-05-10T05:41:25;100934.28;;;14.97
78961;BMP280;68362;45.970;12.646;2023-05-10T05:42:27;100926.81;;;15.11
78961;BMP280;68362;45.970;12.646;2023-05-10T05:43:29;100934.59;;;14.84
78961;BMP280;68362;45.970;12.646;2023-05-10T05:44:31;100935.78;;;14.93
78961;BMP280;68362;45.970;12.646;2023-05-10T05:45:33;100937.47;;;14.99
78961;BMP280;68362;45.970;12.646;2023-05-10T05:46:35;100934.28;;;14.97
78961;BMP280;68362;45.970;12.646;2023-05-10T05:47:37;100931.78;;;15.07
78961;BMP280;68362;45.970;12.646;2023-05-10T05:48:39;100934.25;;;15.14
78961;BMP280;68362;45.970;12.646;2023-05-10T05:49:41;100931.97;;;15.22
78961;BMP280;68362;45.970;12.646;2023-05-10T05:50:43;100927.66;;;15.33
78961;BMP280;68362;45.970;12.646;2023-05-10T05:51:45;100937.84;;;15.08
78961;BMP280;68362;45.970;12.646;2023-05-10T05:52:47;100938.19;;;15.11
78961;BMP280;68362;45.970;12.646;2023-05-10T05:53:50;100936.50;;;15.05
78961;BMP280;68362;45.970;12.646;2023-05-10T05:54:52;100934.16;;;14.87
78961;BMP280;68362;45.970;12.646;2023-05-10T05:55:55;100941.81;;;15.05
78961;BMP280;68362;45.970;12.646;2023-05-10T05:56:58;100939.91;;;14.84
78961;BMP280;68362;45.970;12.646;2023-05-10T05:58:02;100943.44;;;14.73
78961;BMP280;68362;45.970;12.646;2023-05-10T05:59:04;100937.97;;;14.62
78961;BMP280;68362;45.970;12.646;2023-05-10T06:00:07;100939.72;;;14.57
78961;BMP280;68362;45.970;12.646;2023-05-10T06:01:09;100937.91;;;14.57
78961;BMP280;68362;45.970;12.646;2023-05-10T06:02:11;100943.84;;;14.36
78961;BMP280;68362;45.970;12.646;2023-05-10T06:03:13;100939.00;;;14.28
78961;BMP280;68362;45.970;12.646;2023-05-10T06:04:15;100942.09;;;14.42
78961;BMP280;68362;45.970;12.646;2023-05-10T06:05:18;100938.13;;;14.56
78961;BMP280;68362;45.970;12.646;2023-05-10T06:06:20;100938.13;;;14.56
78961;BMP280;68362;45.970;12.646;2023-05-10T06:07:22;100944.19;;;14.73
78961;BMP280;68362;45.970;12.646;2023-05-10T06:08:24;100948.88;;;14.83
78961;BMP280;68362;45.970;12.646;2023-05-10T06:09:27;100945.19;;;14.67